sensor_id;sensor_type;location;lat;lon;timestamp;temperature;humidity
18805;DHT22;9530;48.930;9.526;2022-12-18T00:00:08;-9.10;99.90
18805;DHT22;9530;48.930;9.526;2022-12-18T00:02:34;-9.10;99.90
18805;DHT22;9530;48.930;9.526;2022-12-18T00:05:01;-9.20;99.90
18805;DHT22;9530;48.930;9.526;2022-12-18T00:07:28;-9.10;99.90
18805;DHT22;9530;48.930;9.526;2022-12-18T00:09:56;-9.10;99.90
18805;DHT22;9530;48.930;9.526;2022-12-18T00:12:23;-9.10;99.90
18805;DHT22;9530;48.930;9.526;2022-12-18T00:14:49;-9.10;99.90
18805;DHT22;9530;48.930;9.526;2022-12-18T00:17:16;-9.00;99.90
18805;DHT22;9530;48.930;9.526;2022-12-18T00:19:43;-9.10;99.90
18805;DHT22;9530;48.930;9.526;2022-12-18T00:22:10;-9.20;99.90
18805;DHT22;9530;48.930;9.526;2022-12-18T00:24:36;-9.30;99.90
18805;DHT22;9530;48.930;9.526;2022-12-18T00:27:04;-9.40;99.90
18805;DHT22;9530;48.930;9.526;2022-12-18T00:29:31;-9.40;99.90
18805;DHT22;9530;48.930;9.526;2022-12-18T00:31:58;-9.40;99.90
18805;DHT22;9530;48.930;9.526;2022-12-18T00:34:24;-9.40;99.90
18805;DHT22;9530;48.930;9.526;2022-12-18T00:36:51;-9.50;99.90
18805;DHT22;9530;48.930;9.526;2022-12-18T00:39:18;-9.50;99.90
18805;DHT22;9530;48.930;9.526;2022-12-18T00:41:45;-9.40;99.90
18805;DHT22;9530;48.930;9.526;2022-12-18T00:44:31;-9.50;99.90
18805;DHT22;9530;48.930;9.526;2022-12-18T00:46:57;-9.40;99.90
18805;DHT22;9530;48.930;9.526;2022-12-18T00:49:24;-9.30;99.90
18805;DHT22;9530;48.930;9.526;2022-12-18T00:51:51;-9.30;99.90
18805;DHT22;9530;48.930;9.526;2022-12-18T00:54:17;-9.30;99.90
18805;DHT22;9530;48.930;9.526;2022-12-18T00:56:44;-9.30;99.90
18805;DHT22;9530;48.930;9.526;2022-12-18T00:59:11;-9.30;99.90
18805;DHT22;9530;48.930;9.526;2022-12-18T01:01:39;-9.30;99.90
18805;DHT22;9530;48.930;9.526;2022-12-18T01:04:06;-9.40;99.90
18805;DHT22;9530;48.930;9.526;2022-12-18T01:06:33;-9.30;99.90
18805;DHT22;9530;48.930;9.526;2022-12-18T01:08:59;-9.20;99.90
18805;DHT22;9530;48.930;9.526;2022-12-18T01:11:26;-9.20;99.90
18805;DHT22;9530;48.930;9.526;2022-12-18T01:13:53;-9.10;99.90
18805;DHT22;9530;48.930;9.526;2022-12-18T01:16:20;-9.10;99.90
18805;DHT22;9530;48.930;9.526;2022-12-18T01:18:51;-9.30;99.90
18805;DHT22;9530;48.930;9.526;2022-12-18T01:21:18;-9.20;99.90
18805;DHT22;9530;48.930;9.526;2022-12-18T01:23:45;-9.30;99.90
18805;DHT22;9530;48.930;9.526;2022-12-18T01:26:13;-9.30;99.90
18805;DHT22;9530;48.930;9.526;2022-12-18T01:28:41;-9.30;99.90
18805;DHT22;9530;48.930;9.526;2022-12-18T01:31:10;-9.40;99.90
18805;DHT22;9530;48.930;9.526;2022-12-18T01:33:37;-9.60;99.90
18805;DHT22;9530;48.930;9.526;2022-12-18T01:36:06;-9.50;99.90
18805;DHT22;9530;48.930;9.526;2022-12-18T01:38:33;-9.50;99.90
18805;DHT22;9530;48.930;9.526;2022-12-18T01:41:00;-9.50;99.90
18805;DHT22;9530;48.930;9.526;2022-12-18T01:43:49;-9.40;99.90
18805;DHT22;9530;48.930;9.526;2022-12-18T01:46:17;-9.30;99.90
18805;DHT22;9530;48.930;9.526;2022-12-18T01:48:45;-9.40;99.90
18805;DHT22;9530;48.930;9.526;2022-12-18T01:51:14;-9.40;99.90
18805;DHT22;9530;48.930;9.526;2022-12-18T01:53:42;-9.50;99.90
18805;DHT22;9530;48.930;9.526;2022-12-18T01:56:13;-9.60;99.90
18805;DHT22;9530;48.930;9.526;2022-12-18T01:58:46;-9.50;99.90
18805;DHT22;9530;48.930;9.526;2022-12-18T02:01:14;-9.50;99.90
18805;DHT22;9530;48.930;9.526;2022-12-18T02:03:42;-9.30;99.90
18805;DHT22;9530;48.930;9.526;2022-12-18T02:06:16;-9.40;99.90
18805;DHT22;9530;48.930;9.526;2022-12-18T02:08:49;-9.50;99.90
18805;DHT22;9530;48.930;9.526;2022-12-18T02:11:25;-9.60;99.90
18805;DHT22;9530;48.930;9.526;2022-12-18T02:14:00;-9.50;99.90
18805;DHT22;9530;48.930;9.526;2022-12-18T02:16:34;-9.60;99.90
18805;DHT22;9530;48.930;9.526;2022-12-18T02:19:12;-9.50;99.90
18805;DHT22;9530;48.930;9.526;2022-12-18T02:21:48;-9.60;99.90
18805;DHT22;9530;48.930;9.526;2022-12-18T02:24:25;-9.40;99.90
18805;DHT22;9530;48.930;9.526;2022-12-18T02:26:59;-9.30;99.90
18805;DHT22;9530;48.930;9.526;2022-12-18T02:29:30;-9.30;99.90
18805;DHT22;9530;48.930;9.526;2022-12-18T02:31:59;-9.30;99.90
18805;DHT22;9530;48.930;9.526;2022-12-18T02:34:28;-9.50;99.90
18805;DHT22;9530;48.930;9.526;2022-12-18T02:36:57;-9.40;99.90
18805;DHT22;9530;48.930;9.526;2022-12-18T02:39:27;-9.40;99.90
18805;DHT22;9530;48.930;9.526;2022-12-18T02:41:57;-9.40;99.90
18805;DHT22;9530;48.930;9.526;2022-12-18T02:44:25;-9.30;99.90
18805;DHT22;9530;48.930;9.526;2022-12-18T02:46:53;-9.30;99.90
18805;DHT22;9530;48.930;9.526;2022-12-18T02:49:27;-9.40;99.90
18805;DHT22;9530;48.930;9.526;2022-12-18T02:52:13;-9.40;99.90
18805;DHT22;9530;48.930;9.526;2022-12-18T02:54:55;-9.50;99.90
18805;DHT22;9530;48.930;9.526;2022-12-18T02:57:33;-9.40;99.90
18805;DHT22;9530;48.930;9.526;2022-12-18T03:00:04;-9.20;99.90
18805;DHT22;9530;48.930;9.526;2022-12-18T03:02:37;-9.10;99.90
18805;DHT22;9530;48.930;9.526;2022-12-18T03:05:10;-9.10;99.90
18805;DHT22;9530;48.930;9.526;2022-12-18T03:07:42;-9.20;99.90
18805;DHT22;9530;48.930;9.526;2022-12-18T03:10:13;-9.20;99.90
18805;DHT22;9530;48.930;9.526;2022-12-18T03:12:43;-9.10;99.90
18805;DHT22;9530;48.930;9.526;2022-12-18T03:15:16;-9.10;99.90
18805;DHT22;9530;48.930;9.526;2022-12-18T03:17:48;-9.10;99.90
18805;DHT22;9530;48.930;9.526;2022-12-18T03:20:20;-9.00;99.90
18805;DHT22;9530;48.930;9.526;2022-12-18T03:22:52;-9.00;99.90
18805;DHT22;9530;48.930;9.526;2022-12-18T03:25:20;-9.00;99.90
18805;DHT22;9530;48.930;9.526;2022-12-18T03:27:51;-9.00;99.90
18805;DHT22;9530;48.930;9.526;2022-12-18T03:30:21;-9.00;99.90
18805;DHT22;9530;48.930;9.526;2022-12-18T03:32:50;-9.20;99.90
18805;DHT22;9530;48.930;9.526;2022-12-18T03:35:22;-9.20;99.90
18805;DHT22;9530;48.930;9.526;2022-12-18T03:37:50;-9.30;99.90
18805;DHT22;9530;48.930;9.526;2022-12-18T03:40:16;-9.30;99.90
18805;DHT22;9530;48.930;9.526;2022-12-18T03:42:47;-9.30;99.90
18805;DHT22;9530;48.930;9.526;2022-12-18T03:45:21;-9.20;99.90
18805;DHT22;9530;48.930;9.526;2022-12-18T03:47:58;-9.10;99.90
18805;DHT22;9530;48.930;9.526;2022-12-18T03:50:33;-9.10;99.90
18805;DHT22;9530;48.930;9.526;2022-12-18T03:53:09;-9.20;99.90
18805;DHT22;9530;48.930;9.526;2022-12-18T03:55:41;-9.10;99.90
18805;DHT22;9530;48.930;9.526;2022-12-18T03:58:09;-9.20;99.90
18805;DHT22;9530;48.930;9.526;2022-12-18T04:00:39;-9.20;99.90
18805;DHT22;9530;48.930;9.526;2022-12-18T04:03:07;-9.20;99.90
18805;DHT22;9530;48.930;9.526;2022-12-18T04:05:35;-9.10;99.90
18805;DHT22;9530;48.930;9.526;2022-12-18T04:08:03;-9.10;99.90
18805;DHT22;9530;48.930;9.526;2022-12-18T04:10:31;-9.10;99.90
18805;DHT22;9530;48.930;9.526;2022-12-18T04:12:58;-9.00;99.90
18805;DHT22;9530;48.930;9.526;2022-12-18T04:15:24;-9.00;99.90
18805;DHT22;9530;48.930;9.526;2022-12-18T04:17:53;-9.00;99.90
18805;DHT22;9530;48.930;9.526;2022-12-18T04:20:19;-9.00;99.90
18805;DHT22;9530;48.930;9.526;2022-12-18T04:22:47;-9.00;99.90
18805;DHT22;9530;48.930;9.526;2022-12-18T04:25:14;-9.00;99.90
18805;DHT22;9530;48.930;9.526;2022-12-18T04:27:40;-9.10;99.90
18805;DHT22;9530;48.930;9.526;2022-12-18T04:30:08;-9.00;99.90
18805;DHT22;9530;48.930;9.526;2022-12-18T04:32:35;-9.00;99.90
18805;DHT22;9530;48.930;9.526;2022-12-18T04:35:04;-8.90;99.90
18805;DHT22;9530;48.930;9.526;2022-12-18T04:37:33;-8.90;99.90
18805;DHT22;9530;48.930;9.526;2022-12-18T04:40:00;-8.80;99.90
18805;DHT22;9530;48.930;9.526;2022-12-18T04:42:27;-8.80;99.90
18805;DHT22;9530;48.930;9.526;2022-12-18T04:44:53;-8.70;99.90
18805;DHT22;9530;48.930;9.526;2022-12-18T04:47:20;-8.60;99.90
18805;DHT22;9530;48.930;9.526;2022-12-18T04:49:47;-8.60;99.90
18805;DHT22;9530;48.930;9.526;2022-12-18T04:52:15;-8.40;99.90
18805;DHT22;9530;48.930;9.526;2022-12-18T04:54:41;-8.40;99.90
18805;DHT22;9530;48.930;9.526;2022-12-18T04:57:09;-8.30;99.90
18805;DHT22;9530;48.930;9.526;2022-12-18T04:59:36;-8.10;99.90
18805;DHT22;9530;48.930;9.526;2022-12-18T05:02:02;-8.00;99.90
18805;DHT22;9530;48.930;9.526;2022-12-18T05:04:29;-7.90;99.90
18805;DHT22;9530;48.930;9.526;2022-12-18T05:06:56;-7.80;99.90
18805;DHT22;9530;48.930;9.526;2022-12-18T05:09:24;-7.90;99.90
18805;DHT22;9530;48.930;9.526;2022-12-18T05:11:50;-8.00;99.90
18805;DHT22;9530;48.930;9.526;2022-12-18T05:14:17;-7.90;99.90
18805;DHT22;9530;48.930;9.526;2022-12-18T05:16:44;-7.80;99.90
18805;DHT22;9530;48.930;9.526;2022-12-18T05:19:11;-7.60;99.90
18805;DHT22;9530;48.930;9.526;2022-12-18T05:21:38;-7.50;99.90
18805;DHT22;9530;48.930;9.526;2022-12-18T05:24:05;-7.30;99.90
18805;DHT22;9530;48.930;9.526;2022-12-18T05:26:33;-7.20;99.90
18805;DHT22;9530;48.930;9.526;2022-12-18T05:28:59;-7.20;99.90
18805;DHT22;9530;48.930;9.526;2022-12-18T05:31:26;-7.10;99.90
18805;DHT22;9530;48.930;9.526;2022-12-18T05:33:53;-7.00;99.90
18805;DHT22;9530;48.930;9.526;2022-12-18T05:36:20;-7.00;99.90
18805;DHT22;9530;48.930;9.526;2022-12-18T05:38:46;-6.90;99.90
18805;DHT22;9530;48.930;9.526;2022-12-18T05:41:13;-6.90;99.90
18805;DHT22;9530;48.930;9.526;2022-12-18T05:43:41;-7.10;99.90
18805;DHT22;9530;48.930;9.526;2022-12-18T05:46:11;-7.10;99.90
18805;DHT22;9530;48.930;9.526;2022-12-18T05:48:38;-7.10;99.90
18805;DHT22;9530;48.930;9.526;2022-12-18T05:51:07;-7.00;99.90
18805;DHT22;9530;48.930;9.526;2022-12-18T05:53:34;-7.00;99.90
18805;DHT22;9530;48.930;9.526;2022-12-18T05:56:01;-7.00;99.90
18805;DHT22;9530;48.930;9.526;2022-12-18T05:58:28;-7.00;99.90
18805;DHT22;9530;48.930;9.526;2022-12-18T06:00:57;-6.90;99.90
18805;DHT22;9530;48.930;9.526;2022-12-18T06:03:24;-7.00;99.90
18805;DHT22;9530;48.930;9.526;2022-12-18T06:05:50;-7.10;99.90
18805;DHT22;9530;48.930;9.526;2022-12-18T06:08:17;-7.00;99.90
18805;DHT22;9530;48.930;9.526;2022-12-18T06:10:49;-7.20;99.90
18805;DHT22;9530;48.930;9.526;2022-12-18T06:13:17;-7.30;99.90
18805;DHT22;9530;48.930;9.526;2022-12-18T06:15:44;-7.30;99.90
18805;DHT22;9530;48.930;9.526;2022-12-18T06:18:12;-7.40;99.90
18805;DHT22;9530;48.930;9.526;2022-12-18T06:20:39;-7.70;99.90
18805;DHT22;9530;48.930;9.526;2022-12-18T06:23:07;-7.70;99.90
18805;DHT22;9530;48.930;9.526;2022-12-18T06:25:37;-7.60;99.90
18805;DHT22;9530;48.930;9.526;2022-12-18T06:28:04;-7.70;99.90
18805;DHT22;9530;48.930;9.526;2022-12-18T06:30:31;-7.80;99.90
18805;DHT22;9530;48.930;9.526;2022-12-18T06:32:58;-8.00;99.90
18805;DHT22;9530;48.930;9.526;2022-12-18T06:35:26;-8.00;99.90
18805;DHT22;9530;48.930;9.526;2022-12-18T06:37:53;-8.10;99.90
18805;DHT22;9530;48.930;9.526;2022-12-18T06:40:19;-8.20;99.90
18805;DHT22;9530;48.930;9.526;2022-12-18T06:42:46;-8.20;99.90
18805;DHT22;9530;48.930;9.526;2022-12-18T06:45:13;-8.20;99.90
18805;DHT22;9530;48.930;9.526;2022-12-18T06:47:40;-8.30;99.90
18805;DHT22;9530;48.930;9.526;2022-12-18T06:50:07;-8.20;99.90
18805;DHT22;9530;48.930;9.526;2022-12-18T06:52:35;-8.20;99.90
18805;DHT22;9530;48.930;9.526;2022-12-18T06:55:02;-8.20;99.90
18805;DHT22;9530;48.930;9.526;2022-12-18T06:57:29;-8.30;99.90
18805;DHT22;9530;48.930;9.526;2022-12-18T06:59:56;-8.10;99.90
18805;DHT22;9530;48.930;9.526;2022-12-18T07:02:23;-8.20;99.90
18805;DHT22;9530;48.930;9.526;2022-12-18T07:04:49;-7.90;99.90
18805;DHT22;9530;48.930;9.526;2022-12-18T07:07:16;-7.80;99.90
18805;DHT22;9530;48.930;9.526;2022-12-18T07:09:44;-7.70;99.90
18805;DHT22;9530;48.930;9.526;2022-12-18T07:12:11;-7.60;99.90
18805;DHT22;9530;48.930;9.526;2022-12-18T07:14:38;-7.60;99.90
18805;DHT22;9530;48.930;9.526;2022-12-18T07:17:04;-7.50;99.90
18805;DHT22;9530;48.930;9.526;2022-12-18T07:19:31;-7.70;99.90
18805;DHT22;9530;48.930;9.526;2022-12-18T07:21:58;-7.80;99.90
18805;DHT22;9530;48.930;9.526;2022-12-18T07:24:24;-7.90;99.90
18805;DHT22;9530;48.930;9.526;2022-12-18T07:26:52;-7.80;99.90
18805;DHT22;9530;48.930;9.526;2022-12-18T07:29:19;-7.80;99.90
18805;DHT22;9530;48.930;9.526;2022-12-18T07:31:46;-7.70;99.90
18805;DHT22;9530;48.930;9.526;2022-12-18T07:34:13;-7.80;99.90
18805;DHT22;9530;48.930;9.526;2022-12-18T07:36:41;-7.70;99.90
18805;DHT22;9530;48.930;9.526;2022-12-18T07:39:08;-7.60;99.90
18805;DHT22;9530;48.930;9.526;2022-12-18T07:41:35;-7.50;99.90
18805;DHT22;9530;48.930;9.526;2022-12-18T07:44:03;-7.30;99.90
18805;DHT22;9530;48.930;9.526;2022-12-18T07:46:30;-7.10;99.90
18805;DHT22;9530;48.930;9.526;2022-12-18T07:48:56;-6.90;99.90
18805;DHT22;9530;48.930;9.526;2022-12-18T07:51:23;-6.80;99.90
18805;DHT22;9530;48.930;9.526;2022-12-18T07:53:50;-6.80;99.90
18805;DHT22;9530;48.930;9.526;2022-12-18T07:56:16;-6.70;99.90
18805;DHT22;9530;48.930;9.526;2022-12-18T07:58:43;-6.60;99.90
18805;DHT22;9530;48.930;9.526;2022-12-18T08:01:12;-6.50;99.90
18805;DHT22;9530;48.930;9.526;2022-12-18T08:03:39;-6.80;99.90
18805;DHT22;9530;48.930;9.526;2022-12-18T08:06:08;-6.80;99.90
18805;DHT22;9530;48.930;9.526;2022-12-18T08:08:36;-6.90;99.90
18805;DHT22;9530;48.930;9.526;2022-12-18T08:11:03;-7.00;99.90
18805;DHT22;9530;48.930;9.526;2022-12-18T08:13:29;-6.90;99.90
18805;DHT22;9530;48.930;9.526;2022-12-18T08:15:57;-6.80;99.90
18805;DHT22;9530;48.930;9.526;2022-12-18T08:18:25;-6.80;99.90
18805;DHT22;9530;48.930;9.526;2022-12-18T08:20:51;-6.70;99.90
18805;DHT22;9530;48.930;9.526;2022-12-18T08:23:19;-6.60;99.90
18805;DHT22;9530;48.930;9.526;2022-12-18T08:25:45;-6.40;99.90
18805;DHT22;9530;48.930;9.526;2022-12-18T08:28:12;-6.30;99.90
18805;DHT22;9530;48.930;9.526;2022-12-18T08:30:39;-6.10;99.90
18805;DHT22;9530;48.930;9.526;2022-12-18T08:33:06;-6.00;99.90
18805;DHT22;9530;48.930;9.526;2022-12-18T08:35:36;-5.80;99.90
18805;DHT22;9530;48.930;9.526;2022-12-18T08:38:03;-5.70;99.90
18805;DHT22;9530;48.930;9.526;2022-12-18T08:40:30;-5.50;99.90
18805;DHT22;9530;48.930;9.526;2022-12-18T08:42:56;-5.40;99.90
18805;DHT22;9530;48.930;9.526;2022-12-18T08:45:47;-5.20;99.90
18805;DHT22;9530;48.930;9.526;2022-12-18T08:48:14;-5.00;99.90
18805;DHT22;9530;48.930;9.526;2022-12-18T08:50:42;-4.90;99.90
18805;DHT22;9530;48.930;9.526;2022-12-18T08:53:08;-4.80;99.90
18805;DHT22;9530;48.930;9.526;2022-12-18T08:55:35;-4.70;99.90
18805;DHT22;9530;48.930;9.526;2022-12-18T08:58:02;-4.70;99.90
18805;DHT22;9530;48.930;9.526;2022-12-18T09:00:28;-4.60;99.90
18805;DHT22;9530;48.930;9.526;2022-12-18T09:02:55;-4.60;99.90
18805;DHT22;9530;48.930;9.526;2022-12-18T09:05:22;-4.50;99.90
18805;DHT22;9530;48.930;9.526;2022-12-18T09:07:50;-4.40;99.90
18805;DHT22;9530;48.930;9.526;2022-12-18T09:10:17;-4.40;99.90
18805;DHT22;9530;48.930;9.526;2022-12-18T09:12:44;-4.20;99.90
18805;DHT22;9530;48.930;9.526;2022-12-18T09:15:10;-4.20;99.90
18805;DHT22;9530;48.930;9.526;2022-12-18T09:17:37;-4.10;99.90
18805;DHT22;9530;48.930;9.526;2022-12-18T09:20:04;-4.00;99.90
18805;DHT22;9530;48.930;9.526;2022-12-18T09:22:31;-3.90;99.90
18805;DHT22;9530;48.930;9.526;2022-12-18T09:24:59;-3.90;99.90
18805;DHT22;9530;48.930;9.526;2022-12-18T09:27:26;-3.80;99.90
18805;DHT22;9530;48.930;9.526;2022-12-18T09:29:53;-3.80;99.90
18805;DHT22;9530;48.930;9.526;2022-12-18T09:32:19;-3.60;99.90
18805;DHT22;9530;48.930;9.526;2022-12-18T09:34:46;-3.50;99.90
18805;DHT22;9530;48.930;9.526;2022-12-18T09:37:13;-3.40;99.90
18805;DHT22;9530;48.930;9.526;2022-12-18T09:39:39;-3.30;99.90
18805;DHT22;9530;48.930;9.526;2022-12-18T09:42:13;-3.20;99.90
18805;DHT22;9530;48.930;9.526;2022-12-18T09:44:45;-3.10;99.90
18805;DHT22;9530;48.930;9.526;2022-12-18T09:47:16;-3.10;99.90
18805;DHT22;9530;48.930;9.526;2022-12-18T09:49:46;-3.00;99.90
18805;DHT22;9530;48.930;9.526;2022-12-18T09:52:17;-2.90;99.90
18805;DHT22;9530;48.930;9.526;2022-12-18T09:54:50;-2.80;99.90
18805;DHT22;9530;48.930;9.526;2022-12-18T09:57:21;-2.70;99.90
18805;DHT22;9530;48.930;9.526;2022-12-18T09:59:53;-2.70;99.90
18805;DHT22;9530;48.930;9.526;2022-12-18T10:02:22;-2.60;99.90
18805;DHT22;9530;48.930;9.526;2022-12-18T10:05:03;-2.60;99.90
18805;DHT22;9530;48.930;9.526;2022-12-18T10:07:38;-2.60;99.90
18805;DHT22;9530;48.930;9.526;2022-12-18T10:10:12;-2.50;99.90
18805;DHT22;9530;48.930;9.526;2022-12-18T10:12:45;-2.40;99.90
18805;DHT22;9530;48.930;9.526;2022-12-18T10:15:19;-2.30;99.90
18805;DHT22;9530;48.930;9.526;2022-12-18T10:17:53;-2.30;99.90
18805;DHT22;9530;48.930;9.526;2022-12-18T10:20:27;-2.30;99.90
18805;DHT22;9530;48.930;9.526;2022-12-18T10:23:00;-2.30;99.90
18805;DHT22;9530;48.930;9.526;2022-12-18T10:25:34;-2.20;99.90
18805;DHT22;9530;48.930;9.526;2022-12-18T10:28:09;-2.20;99.90
18805;DHT22;9530;48.930;9.526;2022-12-18T10:30:38;-2.10;99.90
18805;DHT22;9530;48.930;9.526;2022-12-18T10:33:05;-2.10;99.90
18805;DHT22;9530;48.930;9.526;2022-12-18T10:35:34;-2.00;99.90
18805;DHT22;9530;48.930;9.526;2022-12-18T10:38:05;-1.90;99.90
18805;DHT22;9530;48.930;9.526;2022-12-18T10:40:32;-1.70;99.90
18805;DHT22;9530;48.930;9.526;2022-12-18T10:43:12;-1.70;99.90
18805;DHT22;9530;48.930;9.526;2022-12-18T10:45:39;-1.70;99.90
18805;DHT22;9530;48.930;9.526;2022-12-18T10:48:17;-1.50;99.90
18805;DHT22;9530;48.930;9.526;2022-12-18T10:50:49;-1.50;99.90
18805;DHT22;9530;48.930;9.526;2022-12-18T10:53:20;-1.50;99.90
18805;DHT22;9530;48.930;9.526;2022-12-18T10:55:48;-1.50;99.90
18805;DHT22;9530;48.930;9.526;2022-12-18T10:58:24;-1.40;99.90
18805;DHT22;9530;48.930;9.526;2022-12-18T11:01:07;-1.40;99.90
18805;DHT22;9530;48.930;9.526;2022-12-18T11:03:36;-1.30;99.90
18805;DHT22;9530;48.930;9.526;2022-12-18T11:06:07;-1.30;99.90
18805;DHT22;9530;48.930;9.526;2022-12-18T11:08:34;-1.30;99.90
18805;DHT22;9530;48.930;9.526;2022-12-18T11:11:02;-1.10;99.90
18805;DHT22;9530;48.930;9.526;2022-12-18T11:13:30;-0.90;99.90
18805;DHT22;9530;48.930;9.526;2022-12-18T11:15:58;-0.80;99.90
18805;DHT22;9530;48.930;9.526;2022-12-18T11:18:27;-0.80;99.90
18805;DHT22;9530;48.930;9.526;2022-12-18T11:20:56;-0.70;99.90
18805;DHT22;9530;48.930;9.526;2022-12-18T11:23:26;-0.70;99.90
18805;DHT22;9530;48.930;9.526;2022-12-18T11:25:55;-0.50;99.90
18805;DHT22;9530;48.930;9.526;2022-12-18T11:28:28;-0.40;99.90
18805;DHT22;9530;48.930;9.526;2022-12-18T11:31:15;-0.30;99.90
18805;DHT22;9530;48.930;9.526;2022-12-18T11:33:46;-0.40;99.90
18805;DHT22;9530;48.930;9.526;2022-12-18T11:36:14;-0.30;99.90
18805;DHT22;9530;48.930;9.526;2022-12-18T11:38:44;-0.20;99.90
18805;DHT22;9530;48.930;9.526;2022-12-18T11:41:18;-0.20;99.90
18805;DHT22;9530;48.930;9.526;2022-12-18T11:43:52;-0.20;99.90
18805;DHT22;9530;48.930;9.526;2022-12-18T11:46:26;-0.10;99.90
18805;DHT22;9530;48.930;9.526;2022-12-18T11:48:58;0.00;99.90
18805;DHT22;9530;48.930;9.526;2022-12-18T11:51:28;-0.10;99.90
18805;DHT22;9530;48.930;9.526;2022-12-18T11:53:57;-0.30;99.90
18805;DHT22;9530;48.930;9.526;2022-12-18T11:56:30;-0.20;99.90
18805;DHT22;9530;48.930;9.526;2022-12-18T11:59:07;-0.20;99.90
18805;DHT22;9530;48.930;9.526;2022-12-18T12:01:44;-0.10;99.90
18805;DHT22;9530;48.930;9.526;2022-12-18T12:07:16;0.00;99.90
18805;DHT22;9530;48.930;9.526;2022-12-18T12:09:51;-0.20;99.90
18805;DHT22;9530;48.930;9.526;2022-12-18T12:12:33;-0.20;99.90
18805;DHT22;9530;48.930;9.526;2022-12-18T12:15:20;-0.30;99.90
18805;DHT22;9530;48.930;9.526;2022-12-18T12:17:54;-0.30;99.90
18805;DHT22;9530;48.930;9.526;2022-12-18T12:20:28;-0.20;99.90
18805;DHT22;9530;48.930;9.526;2022-12-18T12:23:03;-0.10;99.90
18805;DHT22;9530;48.930;9.526;2022-12-18T12:25:39;-0.10;99.90
18805;DHT22;9530;48.930;9.526;2022-12-18T12:28:19;-0.10;99.90
18805;DHT22;9530;48.930;9.526;2022-12-18T12:31:00;-0.10;99.90
18805;DHT22;9530;48.930;9.526;2022-12-18T12:33:38;0.00;99.90
18805;DHT22;9530;48.930;9.526;2022-12-18T12:36:14;0.10;99.90
18805;DHT22;9530;48.930;9.526;2022-12-18T12:38:44;0.00;99.90
18805;DHT22;9530;48.930;9.526;2022-12-18T12:41:18;0.00;99.90
18805;DHT22;9530;48.930;9.526;2022-12-18T12:44:07;-0.10;99.90
18805;DHT22;9530;48.930;9.526;2022-12-18T12:46:37;-0.20;99.90
18805;DHT22;9530;48.930;9.526;2022-12-18T12:49:11;-0.10;99.90
18805;DHT22;9530;48.930;9.526;2022-12-18T12:51:41;-0.10;99.90
18805;DHT22;9530;48.930;9.526;2022-12-18T12:54:15;0.00;99.90
18805;DHT22;9530;48.930;9.526;2022-12-18T12:56:50;0.00;99.90
18805;DHT22;9530;48.930;9.526;2022-12-18T12:59:22;0.10;99.90
18805;DHT22;9530;48.930;9.526;2022-12-18T13:01:54;0.10;99.90
18805;DHT22;9530;48.930;9.526;2022-12-18T13:04:29;-0.10;99.90
18805;DHT22;9530;48.930;9.526;2022-12-18T13:07:01;-0.10;99.90
18805;DHT22;9530;48.930;9.526;2022-12-18T13:09:30;-0.10;99.90
18805;DHT22;9530;48.930;9.526;2022-12-18T13:12:04;0.00;99.90
18805;DHT22;9530;48.930;9.526;2022-12-18T13:14:48;0.00;99.90
18805;DHT22;9530;48.930;9.526;2022-12-18T13:17:29;0.00;99.90
18805;DHT22;9530;48.930;9.526;2022-12-18T13:20:05;0.10;99.90
18805;DHT22;9530;48.930;9.526;2022-12-18T13:22:35;0.10;99.90
18805;DHT22;9530;48.930;9.526;2022-12-18T13:25:03;0.00;99.90
18805;DHT22;9530;48.930;9.526;2022-12-18T13:28:09;0.10;99.90
18805;DHT22;9530;48.930;9.526;2022-12-18T13:30:54;0.20;99.90
18805;DHT22;9530;48.930;9.526;2022-12-18T13:33:48;0.20;99.90
18805;DHT22;9530;48.930;9.526;2022-12-18T13:36:30;0.20;99.90
18805;DHT22;9530;48.930;9.526;2022-12-18T13:39:30;0.20;99.90
18805;DHT22;9530;48.930;9.526;2022-12-18T13:45:42;0.10;99.90
18805;DHT22;9530;48.930;9.526;2022-12-18T13:48:18;0.10;99.90
18805;DHT22;9530;48.930;9.526;2022-12-18T13:50:49;0.10;99.90
18805;DHT22;9530;48.930;9.526;2022-12-18T13:53:21;0.10;99.90
18805;DHT22;9530;48.930;9.526;2022-12-18T13:55:49;0.10;99.90
18805;DHT22;9530;48.930;9.526;2022-12-18T13:58:16;0.00;99.90
18805;DHT22;9530;48.930;9.526;2022-12-18T14:00:44;-0.20;99.90
18805;DHT22;9530;48.930;9.526;2022-12-18T14:03:20;-0.20;99.90
18805;DHT22;9530;48.930;9.526;2022-12-18T14:05:53;-0.20;99.90
18805;DHT22;9530;48.930;9.526;2022-12-18T14:08:21;-0.20;99.90
18805;DHT22;9530;48.930;9.526;2022-12-18T14:10:49;-0.30;99.90
18805;DHT22;9530;48.930;9.526;2022-12-18T14:13:24;-0.30;99.90
18805;DHT22;9530;48.930;9.526;2022-12-18T14:15:55;-0.30;99.90
18805;DHT22;9530;48.930;9.526;2022-12-18T14:18:24;-0.30;99.90
18805;DHT22;9530;48.930;9.526;2022-12-18T14:20:52;-0.40;99.90
18805;DHT22;9530;48.930;9.526;2022-12-18T14:23:31;-0.40;99.90
18805;DHT22;9530;48.930;9.526;2022-12-18T14:25:58;-0.50;99.90
18805;DHT22;9530;48.930;9.526;2022-12-18T14:28:25;-0.60;99.90
18805;DHT22;9530;48.930;9.526;2022-12-18T14:30:54;-0.70;99.90
18805;DHT22;9530;48.930;9.526;2022-12-18T14:33:23;-0.80;99.90
18805;DHT22;9530;48.930;9.526;2022-12-18T14:35:55;-0.80;99.90
18805;DHT22;9530;48.930;9.526;2022-12-18T14:38:25;-0.90;99.90
18805;DHT22;9530;48.930;9.526;2022-12-18T14:40:53;-0.90;99.90
18805;DHT22;9530;48.930;9.526;2022-12-18T14:43:21;-0.90;99.90
18805;DHT22;9530;48.930;9.526;2022-12-18T14:45:48;-1.00;99.90
18805;DHT22;9530;48.930;9.526;2022-12-18T14:48:18;-1.00;99.90
18805;DHT22;9530;48.930;9.526;2022-12-18T14:50:54;-1.10;99.90
18805;DHT22;9530;48.930;9.526;2022-12-18T14:53:23;-1.20;99.90
18805;DHT22;9530;48.930;9.526;2022-12-18T14:55:52;-1.30;99.90
18805;DHT22;9530;48.930;9.526;2022-12-18T14:58:19;-1.40;99.90
18805;DHT22;9530;48.930;9.526;2022-12-18T15:00:46;-1.50;99.90
18805;DHT22;9530;48.930;9.526;2022-12-18T15:03:19;-1.50;99.90
18805;DHT22;9530;48.930;9.526;2022-12-18T15:05:47;-1.60;99.90
18805;DHT22;9530;48.930;9.526;2022-12-18T15:08:28;-1.60;99.90
18805;DHT22;9530;48.930;9.526;2022-12-18T15:10:55;-1.70;99.90
18805;DHT22;9530;48.930;9.526;2022-12-18T15:13:23;-1.80;99.90
18805;DHT22;9530;48.930;9.526;2022-12-18T15:15:51;-1.90;99.90
18805;DHT22;9530;48.930;9.526;2022-12-18T15:18:21;-2.00;99.90
18805;DHT22;9530;48.930;9.526;2022-12-18T15:20:52;-2.00;99.90
18805;DHT22;9530;48.930;9.526;2022-12-18T15:23:21;-2.00;99.90
18805;DHT22;9530;48.930;9.526;2022-12-18T15:25:56;-2.00;99.90
18805;DHT22;9530;48.930;9.526;2022-12-18T15:28:25;-2.00;99.90
18805;DHT22;9530;48.930;9.526;2022-12-18T15:31:06;-2.10;99.90
18805;DHT22;9530;48.930;9.526;2022-12-18T15:34:01;-2.10;99.90
18805;DHT22;9530;48.930;9.526;2022-12-18T15:36:31;-2.10;99.90
18805;DHT22;9530;48.930;9.526;2022-12-18T15:39:02;-2.20;99.90
18805;DHT22;9530;48.930;9.526;2022-12-18T15:41:31;-2.20;99.90
18805;DHT22;9530;48.930;9.526;2022-12-18T15:43:59;-2.20;99.90
18805;DHT22;9530;48.930;9.526;2022-12-18T15:46:25;-2.20;99.90
18805;DHT22;9530;48.930;9.526;2022-12-18T15:48:55;-2.20;99.90
18805;DHT22;9530;48.930;9.526;2022-12-18T15:51:24;-2.20;99.90
18805;DHT22;9530;48.930;9.526;2022-12-18T15:53:54;-2.30;99.90
18805;DHT22;9530;48.930;9.526;2022-12-18T15:56:22;-2.30;99.90
18805;DHT22;9530;48.930;9.526;2022-12-18T15:59:11;-2.40;99.90
18805;DHT22;9530;48.930;9.526;2022-12-18T16:01:38;-2.40;99.90
18805;DHT22;9530;48.930;9.526;2022-12-18T16:04:06;-2.40;99.90
18805;DHT22;9530;48.930;9.526;2022-12-18T16:06:33;-2.40;99.90
18805;DHT22;9530;48.930;9.526;2022-12-18T16:08:59;-2.50;99.90
18805;DHT22;9530;48.930;9.526;2022-12-18T16:11:27;-2.50;99.90